createdAt,value
2022-08-25T00:01:33.097Z,19.50
2022-08-25T00:04:02.144Z,19.50
2022-08-25T00:06:30.197Z,19.50
2022-08-25T00:08:59.902Z,19.50
2022-08-25T00:11:30.910Z,19.50
2022-08-25T00:14:04.233Z,19.50
2022-08-25T00:16:32.521Z,19.50
2022-08-25T00:19:05.749Z,19.50
2022-08-25T00:21:33.227Z,19.50
2022-08-25T00:24:02.450Z,19.50
2022-08-25T00:26:30.868Z,19.50
2022-08-25T00:29:01.929Z,19.50
2022-08-25T00:31:38.464Z,19.50
2022-08-25T00:34:15.637Z,19.50
2022-08-25T00:36:43.904Z,19.50
2022-08-25T00:39:11.762Z,19.40
2022-08-25T00:41:42.839Z,19.40
2022-08-25T00:44:12.586Z,19.40
2022-08-25T00:46:44.688Z,19.40
2022-08-25T00:49:24.810Z,19.40
2022-08-25T00:51:58.783Z,19.40
2022-08-25T00:54:37.794Z,19.40
2022-08-25T00:57:07.291Z,19.40
2022-08-25T00:59:34.784Z,19.40
2022-08-25T01:02:02.574Z,19.30
2022-08-25T01:04:30.148Z,19.30
2022-08-25T01:06:59.021Z,19.30
2022-08-25T01:09:26.455Z,19.30
2022-08-25T01:11:53.539Z,19.30
2022-08-25T01:14:22.572Z,19.30
2022-08-25T01:16:53.601Z,19.30
2022-08-25T01:19:21.808Z,19.20
2022-08-25T01:21:51.692Z,19.20
2022-08-25T01:24:56.634Z,19.10
2022-08-25T01:27:23.757Z,19.10
2022-08-25T01:29:51.082Z,19.10
2022-08-25T01:32:18.175Z,19.10
2022-08-25T01:34:46.363Z,19.10
2022-08-25T01:37:15.849Z,19.00
2022-08-25T01:39:43.718Z,19.00
2022-08-25T01:42:54.628Z,18.90
2022-08-25T01:45:22.115Z,18.90
2022-08-25T01:47:49.122Z,18.90
2022-08-25T01:50:16.164Z,18.90
2022-08-25T01:53:04.507Z,18.80
2022-08-25T01:55:51.483Z,18.80
2022-08-25T01:58:25.251Z,18.80
2022-08-25T02:00:57.349Z,18.70
2022-08-25T02:03:25.739Z,18.70
2022-08-25T02:05:53.649Z,18.70
2022-08-25T02:08:22.361Z,18.70
2022-08-25T02:10:50.970Z,18.60
2022-08-25T02:13:19.281Z,18.60
2022-08-25T02:15:54.520Z,18.60
2022-08-25T02:18:21.787Z,18.60
2022-08-25T02:20:48.922Z,18.50
2022-08-25T02:23:16.262Z,18.50
2022-08-25T02:25:44.363Z,18.50
2022-08-25T02:28:11.964Z,18.50
2022-08-25T02:30:40.805Z,18.50
2022-08-25T02:33:08.826Z,18.50
2022-08-25T02:35:36.880Z,18.50
2022-08-25T02:38:04.918Z,18.50
2022-08-25T02:40:32.221Z,18.50
2022-08-25T02:42:59.349Z,18.50
2022-08-25T02:45:26.379Z,18.50
2022-08-25T02:47:53.928Z,18.40
2022-08-25T02:50:20.902Z,18.50
2022-08-25T02:52:50.587Z,18.50
2022-08-25T02:55:18.001Z,18.40
2022-08-25T02:57:45.276Z,18.40
2022-08-25T03:00:14.841Z,18.40
2022-08-25T03:02:42.993Z,18.40
2022-08-25T03:05:12.090Z,18.40
2022-08-25T03:07:39.236Z,18.40
2022-08-25T03:10:13.962Z,18.40
2022-08-25T03:12:41.831Z,18.40
2022-08-25T03:15:12.938Z,18.40
2022-08-25T03:17:40.850Z,18.40
2022-08-25T03:20:10.965Z,18.40
2022-08-25T03:22:37.953Z,18.40
2022-08-25T03:25:24.422Z,18.30
2022-08-25T03:27:52.213Z,18.30
2022-08-25T03:30:19.825Z,18.30
2022-08-25T03:32:47.193Z,18.30
2022-08-25T03:35:14.920Z,18.30
2022-08-25T03:37:42.113Z,18.20
2022-08-25T03:40:15.289Z,18.20
2022-08-25T03:42:45.645Z,18.20
2022-08-25T03:45:16.490Z,18.20
2022-08-25T03:47:47.154Z,18.20
2022-08-25T03:50:15.093Z,18.10
2022-08-25T03:52:42.806Z,18.10
2022-08-25T03:55:12.760Z,18.10
2022-08-25T03:57:40.212Z,18.10
2022-08-25T04:00:09.613Z,18.10
2022-08-25T04:02:40.278Z,18.10
2022-08-25T04:05:08.422Z,18.00
2022-08-25T04:07:35.973Z,18.10
2022-08-25T04:10:04.101Z,18.00
2022-08-25T04:12:31.077Z,18.00
2022-08-25T04:14:58.611Z,18.10
2022-08-25T04:17:25.680Z,18.00
2022-08-25T04:19:52.752Z,18.00
2022-08-25T04:22:19.804Z,18.00
2022-08-25T04:24:46.923Z,18.00
2022-08-25T04:27:14.529Z,18.00
2022-08-25T04:29:41.740Z,18.00
2022-08-25T04:32:08.746Z,18.00
2022-08-25T04:34:35.922Z,18.00
2022-08-25T04:37:06.278Z,18.00
2022-08-25T04:39:33.945Z,18.00
2022-08-25T04:42:01.490Z,18.00
2022-08-25T04:44:29.814Z,18.00
2022-08-25T04:46:56.949Z,18.00
2022-08-25T04:49:24.015Z,18.00
2022-08-25T04:51:50.996Z,18.00
2022-08-25T04:54:21.629Z,18.00
2022-08-25T04:56:50.682Z,18.00
2022-08-25T04:59:22.028Z,18.00
2022-08-25T05:01:49.724Z,18.00
2022-08-25T05:04:27.783Z,18.00
2022-08-25T05:06:58.769Z,17.90
2022-08-25T05:09:26.623Z,18.00
2022-08-25T05:11:54.905Z,17.90
2022-08-25T05:14:26.670Z,17.90
2022-08-25T05:16:55.488Z,18.00
2022-08-25T05:19:24.120Z,18.00
2022-08-25T05:21:51.564Z,18.00
2022-08-25T05:24:18.757Z,18.00
2022-08-25T05:26:45.993Z,18.00
2022-08-25T05:29:13.387Z,18.00
2022-08-25T05:31:43.301Z,18.00
2022-08-25T05:34:12.433Z,18.00
2022-08-25T05:36:43.354Z,18.00
2022-08-25T05:39:11.361Z,18.00
2022-08-25T05:41:38.658Z,18.00
2022-08-25T05:44:05.804Z,18.00
2022-08-25T05:46:33.013Z,18.00
2022-08-25T05:49:00.323Z,18.00
2022-08-25T05:51:27.745Z,18.00
2022-08-25T05:53:54.877Z,18.00
2022-08-25T05:56:22.032Z,18.00
2022-08-25T05:58:50.251Z,17.90
2022-08-25T06:01:47.995Z,18.00
2022-08-25T06:04:18.238Z,18.00
2022-08-25T06:06:45.319Z,17.90
2022-08-25T06:09:12.581Z,17.90
2022-08-25T06:11:41.229Z,17.90
2022-08-25T06:14:09.920Z,17.90
2022-08-25T06:16:38.774Z,17.90
2022-08-25T06:19:07.481Z,17.90
2022-08-25T06:21:34.740Z,18.00
2022-08-25T06:24:02.182Z,18.00
2022-08-25T06:26:29.169Z,17.90
2022-08-25T06:28:59.199Z,18.00
2022-08-25T06:31:26.566Z,17.90
2022-08-25T06:33:53.757Z,17.90
2022-08-25T06:36:21.027Z,17.90
2022-08-25T06:38:48.450Z,17.90
2022-08-25T06:41:16.612Z,17.90
2022-08-25T06:43:48.073Z,18.00
2022-08-25T06:46:35.982Z,18.00
2022-08-25T06:49:06.108Z,18.00
2022-08-25T06:51:36.118Z,18.00
2022-08-25T06:54:04.809Z,18.00
2022-08-25T06:56:31.730Z,18.00
2022-08-25T06:58:58.861Z,18.00
2022-08-25T07:01:27.453Z,18.00
2022-08-25T07:03:59.821Z,18.00
2022-08-25T07:06:28.607Z,18.00
2022-08-25T07:08:55.578Z,18.00
2022-08-25T07:11:23.377Z,18.10
2022-08-25T07:13:51.383Z,18.00
2022-08-25T07:16:20.766Z,18.00
2022-08-25T07:18:48.598Z,18.00
2022-08-25T07:21:17.417Z,18.00
2022-08-25T07:23:47.047Z,18.00
2022-08-25T07:26:39.186Z,18.10
2022-08-25T07:29:09.832Z,18.10
2022-08-25T07:31:37.450Z,18.10
2022-08-25T07:34:24.122Z,18.10
2022-08-25T07:36:53.703Z,18.00
2022-08-25T07:39:22.027Z,18.00
2022-08-25T07:41:51.938Z,18.00
2022-08-25T07:44:21.325Z,18.00
2022-08-25T07:46:50.240Z,18.00
2022-08-25T07:49:23.208Z,18.00
2022-08-25T07:52:04.113Z,17.90
2022-08-25T07:54:35.617Z,17.90
2022-08-25T07:57:07.690Z,17.90
2022-08-25T07:59:39.176Z,17.90
2022-08-25T08:02:18.141Z,18.00
2022-08-25T08:04:50.137Z,18.00
2022-08-25T08:07:43.272Z,18.00
2022-08-25T08:13:00.642Z,17.90
2022-08-25T08:15:29.620Z,17.90
2022-08-25T08:17:58.703Z,17.90
2022-08-25T08:20:28.072Z,17.90
2022-08-25T08:22:57.873Z,17.80
2022-08-25T08:25:26.641Z,17.80
2022-08-25T08:27:56.759Z,17.80
2022-08-25T08:30:25.949Z,17.80
2022-08-25T08:33:09.273Z,17.80
2022-08-25T08:35:37.229Z,17.80
2022-08-25T08:38:06.897Z,17.70
2022-08-25T08:41:14.263Z,17.70
2022-08-25T08:43:43.692Z,17.70
2022-08-25T08:46:11.258Z,17.70
2022-08-25T08:49:05.737Z,17.70
2022-08-25T08:51:42.369Z,17.70
2022-08-25T08:54:23.041Z,17.70
2022-08-25T08:57:04.101Z,17.70
2022-08-25T09:00:03.187Z,17.70
2022-08-25T09:02:50.516Z,17.70
2022-08-25T09:05:21.468Z,17.70
2022-08-25T09:07:56.765Z,17.70
2022-08-25T09:10:29.215Z,17.70
2022-08-25T09:13:16.980Z,17.60
2022-08-25T09:16:07.963Z,17.60
2022-08-25T09:18:51.069Z,17.60
2022-08-25T09:21:25.278Z,17.60
2022-08-25T09:23:52.252Z,17.60
2022-08-25T09:26:33.846Z,17.50
2022-08-25T09:29:20.920Z,17.50
2022-08-25T09:31:48.912Z,17.40
2022-08-25T09:34:28.382Z,17.50
2022-08-25T09:36:55.372Z,17.40
2022-08-25T09:39:24.141Z,17.40
2022-08-25T09:41:57.050Z,17.40
2022-08-25T09:44:33.622Z,17.40
2022-08-25T09:47:08.296Z,17.40
2022-08-25T09:49:44.600Z,17.30
2022-08-25T09:52:32.060Z,17.30
2022-08-25T09:55:07.781Z,17.30
2022-08-25T09:57:47.180Z,17.30
2022-08-25T10:00:30.725Z,17.30
2022-08-25T10:03:07.886Z,17.30
2022-08-25T10:05:41.587Z,17.30
2022-08-25T10:08:24.861Z,17.20
2022-08-25T10:10:57.558Z,17.20
2022-08-25T10:13:36.924Z,17.20
2022-08-25T10:16:17.694Z,17.20
2022-08-25T10:19:08.837Z,17.20
2022-08-25T10:21:38.639Z,17.20
2022-08-25T10:24:08.358Z,17.20
2022-08-25T10:26:54.930Z,17.20
2022-08-25T10:29:50.061Z,17.20
2022-08-25T10:32:55.379Z,17.20
2022-08-25T10:35:24.510Z,17.30
2022-08-25T10:37:57.168Z,17.30
2022-08-25T10:41:05.033Z,17.30
2022-08-25T10:43:32.121Z,17.30
2022-08-25T10:46:14.236Z,17.30
2022-08-25T10:49:03.522Z,17.30
2022-08-25T10:51:42.441Z,17.30
2022-08-25T10:54:18.352Z,17.30
2022-08-25T10:57:32.006Z,17.40
2022-08-25T11:00:12.668Z,17.40
2022-08-25T11:03:05.126Z,17.50
2022-08-25T11:05:40.557Z,17.50
2022-08-25T11:08:27.142Z,17.50
2022-08-25T11:11:31.406Z,17.50
2022-08-25T11:14:11.607Z,17.60
2022-08-25T11:16:46.057Z,17.60
2022-08-25T11:19:32.739Z,17.60
2022-08-25T11:22:19.697Z,17.60
2022-08-25T11:25:09.385Z,17.70
2022-08-25T11:27:54.151Z,17.70
2022-08-25T11:30:21.969Z,17.80
2022-08-25T11:32:54.935Z,17.80
2022-08-25T11:35:42.446Z,17.90
2022-08-25T11:38:15.368Z,17.90
2022-08-25T11:40:55.629Z,17.90
2022-08-25T11:43:51.781Z,17.90
2022-08-25T11:46:59.893Z,17.90
2022-08-25T11:49:47.711Z,17.90
2022-08-25T11:52:34.781Z,17.90
2022-08-25T11:55:32.075Z,17.90
2022-08-25T11:58:48.702Z,17.90
2022-08-25T12:01:32.553Z,17.90
2022-08-25T12:04:43.998Z,17.90
2022-08-25T12:07:22.649Z,17.90
2022-08-25T12:09:54.115Z,17.90
2022-08-25T12:12:46.875Z,17.90
2022-08-25T12:15:26.923Z,17.90
2022-08-25T12:18:18.829Z,17.90
2022-08-25T12:20:55.430Z,17.90
2022-08-25T12:23:31.779Z,17.90
2022-08-25T12:26:15.692Z,17.90
2022-08-25T12:28:57.068Z,17.90
2022-08-25T12:31:57.316Z,17.90
2022-08-25T12:35:09.007Z,17.90
2022-08-25T12:38:02.749Z,17.90
2022-08-25T12:40:35.572Z,17.90
2022-08-25T12:43:20.432Z,17.90
2022-08-25T12:46:13.592Z,17.90
2022-08-25T12:48:55.761Z,17.90
2022-08-25T12:51:26.312Z,17.90
2022-08-25T12:54:01.349Z,18.00
2022-08-25T12:56:41.168Z,18.00
2022-08-25T12:59:22.015Z,18.10
2022-08-25T13:02:40.195Z,18.10
2022-08-25T13:05:40.232Z,18.10
2022-08-25T13:08:16.446Z,18.10
2022-08-25T13:10:58.161Z,18.20
2022-08-25T13:13:46.277Z,18.10
2022-08-25T13:16:22.236Z,18.10
2022-08-25T13:18:51.835Z,18.10
2022-08-25T13:21:24.801Z,18.10
2022-08-25T13:24:01.365Z,18.10
2022-08-25T13:26:48.646Z,18.00
2022-08-25T13:29:52.948Z,18.00
2022-08-25T13:32:40.594Z,18.00
2022-08-25T13:35:25.571Z,18.00
2022-08-25T13:37:55.139Z,18.00
2022-08-25T13:40:27.331Z,18.00
2022-08-25T13:43:01.209Z,18.00
2022-08-25T13:45:40.940Z,18.00
2022-08-25T13:48:22.851Z,18.00
2022-08-25T13:50:52.241Z,18.00
2022-08-25T13:53:23.969Z,18.10
2022-08-25T13:56:02.242Z,18.10
2022-08-25T13:58:38.965Z,18.20
2022-08-25T14:01:48.406Z,18.20
2022-08-25T14:04:32.960Z,18.30
2022-08-25T14:07:13.410Z,18.40
2022-08-25T14:09:48.554Z,18.50
2022-08-25T14:12:29.382Z,18.60
2022-08-25T14:15:03.477Z,18.60
2022-08-25T14:17:39.009Z,18.70
2022-08-25T14:20:22.073Z,18.70
2022-08-25T14:22:53.968Z,18.80
2022-08-25T14:25:20.969Z,18.80
2022-08-25T14:28:07.219Z,18.90
2022-08-25T14:30:39.388Z,18.90
2022-08-25T14:33:07.054Z,18.90
2022-08-25T14:35:34.486Z,18.90
2022-08-25T14:38:10.619Z,19.00
2022-08-25T14:40:38.679Z,19.00
2022-08-25T14:43:09.523Z,19.00
2022-08-25T14:45:40.447Z,19.10
2022-08-25T14:48:17.981Z,19.10
2022-08-25T14:50:46.260Z,19.20
2022-08-25T14:53:13.660Z,19.20
2022-08-25T14:55:40.729Z,19.30
2022-08-25T14:58:08.324Z,19.30
2022-08-25T15:00:43.392Z,19.40
2022-08-25T15:03:34.267Z,19.40
2022-08-25T15:06:02.917Z,19.40
2022-08-25T15:08:50.271Z,19.40
2022-08-25T15:11:17.840Z,19.40
2022-08-25T15:13:49.596Z,19.30
2022-08-25T15:16:34.116Z,19.30
2022-08-25T15:19:07.490Z,19.30
2022-08-25T15:21:37.958Z,19.20
2022-08-25T15:24:06.378Z,19.20
2022-08-25T15:26:44.671Z,19.20
2022-08-25T15:29:12.471Z,19.10
2022-08-25T15:31:42.788Z,19.10
2022-08-25T15:34:11.630Z,19.00
2022-08-25T15:36:39.462Z,19.00
2022-08-25T15:39:07.036Z,18.90
2022-08-25T15:41:37.532Z,18.90
2022-08-25T15:44:07.729Z,18.80
2022-08-25T15:46:36.244Z,18.70
2022-08-25T15:49:03.761Z,18.60
2022-08-25T15:51:31.217Z,18.60
2022-08-25T15:53:58.329Z,18.60
2022-08-25T15:56:26.395Z,18.50
2022-08-25T15:58:55.528Z,18.50
2022-08-25T16:01:28.065Z,18.50
2022-08-25T16:03:57.771Z,18.40
2022-08-25T16:06:26.312Z,18.40
2022-08-25T16:08:53.712Z,18.30
2022-08-25T16:11:26.703Z,18.30
2022-08-25T16:13:55.814Z,18.30
2022-08-25T16:16:25.179Z,18.20
2022-08-25T16:18:53.259Z,18.20
2022-08-25T16:21:29.057Z,18.20
2022-08-25T16:24:01.901Z,18.20
2022-08-25T16:26:31.729Z,18.20
2022-08-25T16:28:58.830Z,18.20
2022-08-25T16:31:26.021Z,18.10
2022-08-25T16:33:56.119Z,18.10
2022-08-25T16:36:27.038Z,18.10
2022-08-25T16:38:55.048Z,18.10
2022-08-25T16:41:39.243Z,18.10
2022-08-25T16:44:10.985Z,18.00
2022-08-25T16:46:40.827Z,18.00
2022-08-25T16:49:09.383Z,18.00
2022-08-25T16:51:37.530Z,18.00
2022-08-25T16:54:25.061Z,18.00
2022-08-25T16:56:55.185Z,18.00
2022-08-25T16:59:23.519Z,17.90
2022-08-25T17:01:52.522Z,17.90
2022-08-25T17:04:20.288Z,17.90
2022-08-25T17:06:51.705Z,17.90
2022-08-25T17:09:23.810Z,17.90
2022-08-25T17:11:56.685Z,17.90
2022-08-25T17:14:24.035Z,17.90
2022-08-25T17:16:54.624Z,17.90
2022-08-25T17:19:23.835Z,17.90
2022-08-25T17:21:51.329Z,17.90
2022-08-25T17:24:18.473Z,17.90
2022-08-25T17:26:49.778Z,17.90
2022-08-25T17:29:19.803Z,17.90
2022-08-25T17:31:48.538Z,17.90
2022-08-25T17:34:16.916Z,17.90
2022-08-25T17:36:48.587Z,17.90
2022-08-25T17:39:18.233Z,17.90
2022-08-25T17:41:46.047Z,17.90
2022-08-25T17:44:13.763Z,17.90
2022-08-25T17:46:47.032Z,17.90
2022-08-25T17:49:17.146Z,17.90
2022-08-25T17:51:45.240Z,17.90
2022-08-25T17:54:12.777Z,17.90
2022-08-25T17:56:39.751Z,17.90
2022-08-25T17:59:07.593Z,17.90
2022-08-25T18:01:40.473Z,17.90
2022-08-25T18:04:17.475Z,17.90
2022-08-25T18:06:48.400Z,17.80
2022-08-25T18:09:17.485Z,17.80
2022-08-25T18:11:45.768Z,17.80
2022-08-25T18:14:14.458Z,17.70
2022-08-25T18:16:42.148Z,17.70
2022-08-25T18:19:10.779Z,17.60
2022-08-25T18:21:37.949Z,17.60
2022-08-25T18:24:06.326Z,17.60
2022-08-25T18:26:33.734Z,17.50
2022-08-25T18:29:01.944Z,17.50
2022-08-25T18:31:29.101Z,17.40
2022-08-25T18:33:56.417Z,17.40
2022-08-25T18:36:23.844Z,17.40
2022-08-25T18:39:09.542Z,17.30
2022-08-25T18:41:41.088Z,17.30
2022-08-25T18:44:10.927Z,17.20
2022-08-25T18:46:39.913Z,17.20
2022-08-25T18:49:07.068Z,17.10
2022-08-25T18:51:35.444Z,17.10
2022-08-25T18:54:03.602Z,17.00
2022-08-25T18:56:31.006Z,17.00
2022-08-25T18:58:58.273Z,17.00
2022-08-25T19:01:25.657Z,16.90
2022-08-25T19:03:52.813Z,16.80
2022-08-25T19:06:20.665Z,16.80
2022-08-25T19:08:48.646Z,16.80
2022-08-25T19:11:17.000Z,16.70
2022-08-25T19:13:49.278Z,16.70
2022-08-25T19:16:20.366Z,16.70
2022-08-25T19:18:48.960Z,16.60
2022-08-25T19:21:22.768Z,16.60
2022-08-25T19:23:51.304Z,16.60
2022-08-25T19:26:19.765Z,16.50
2022-08-25T19:28:49.014Z,16.50
2022-08-25T19:31:22.334Z,16.50
2022-08-25T19:33:52.511Z,16.40
2022-08-25T19:36:23.009Z,16.40
2022-08-25T19:38:52.458Z,16.30
2022-08-25T19:41:20.578Z,16.30
2022-08-25T19:43:56.368Z,16.20
2022-08-25T19:46:35.536Z,16.20
2022-08-25T19:49:26.320Z,16.10
2022-08-25T19:51:55.995Z,16.10
2022-08-25T19:54:33.174Z,16.00
2022-08-25T19:57:02.619Z,16.00
2022-08-25T19:59:34.267Z,16.00
2022-08-25T20:02:09.474Z,16.00
2022-08-25T20:04:37.932Z,15.90
2022-08-25T20:07:06.977Z,15.90
2022-08-25T20:09:41.154Z,15.80
2022-08-25T20:12:10.502Z,15.80
2022-08-25T20:14:38.263Z,15.70
2022-08-25T20:17:14.679Z,15.70
2022-08-25T20:19:55.969Z,15.70
2022-08-25T20:22:26.571Z,15.70
2022-08-25T20:24:57.985Z,15.60
2022-08-25T20:27:37.895Z,15.60
2022-08-25T20:30:08.713Z,15.60
2022-08-25T20:32:36.864Z,15.50
2022-08-25T20:35:10.066Z,15.50
2022-08-25T20:37:41.968Z,15.50
2022-08-25T20:40:10.459Z,15.40
2022-08-25T20:42:40.560Z,15.40
2022-08-25T20:45:09.275Z,15.40
2022-08-25T20:47:36.365Z,15.40
2022-08-25T20:50:06.892Z,15.30
2022-08-25T20:52:34.806Z,15.30
2022-08-25T20:55:03.033Z,15.30
2022-08-25T20:57:30.194Z,15.30
2022-08-25T20:59:58.049Z,15.20
2022-08-25T21:02:26.485Z,15.20
2022-08-25T21:04:54.168Z,15.20
2022-08-25T21:07:24.817Z,15.10
2022-08-25T21:09:52.342Z,15.10
2022-08-25T21:12:21.027Z,15.10
2022-08-25T21:14:48.528Z,15.10
2022-08-25T21:17:15.961Z,15.10
2022-08-25T21:22:19.097Z,15.00
2022-08-25T21:24:46.138Z,15.00
2022-08-25T21:27:13.629Z,14.90
2022-08-25T21:29:54.414Z,14.90
2022-08-25T21:32:23.461Z,14.90
2022-08-25T21:34:59.244Z,14.90
2022-08-25T21:37:27.005Z,14.80
2022-08-25T21:39:54.479Z,14.80
2022-08-25T21:42:23.942Z,14.80
2022-08-25T21:44:52.593Z,14.70
2022-08-25T21:47:21.273Z,14.70
2022-08-25T21:49:49.899Z,14.70
2022-08-25T21:52:17.790Z,14.70
2022-08-25T21:54:45.194Z,14.60
2022-08-25T21:57:12.798Z,14.60
2022-08-25T21:59:41.185Z,14.60
2022-08-25T22:02:11.363Z,14.60
2022-08-25T22:04:39.539Z,14.60
2022-08-25T22:07:08.001Z,14.50
2022-08-25T22:09:35.899Z,14.50
2022-08-25T22:12:03.951Z,14.50
2022-08-25T22:14:32.342Z,14.40
2022-08-25T22:16:59.623Z,14.50
2022-08-25T22:19:26.836Z,14.50
2022-08-25T22:21:55.033Z,14.40
2022-08-25T22:24:23.030Z,14.40
2022-08-25T22:26:56.402Z,14.30
2022-08-25T22:29:25.179Z,14.30
2022-08-25T22:31:57.819Z,14.30
2022-08-25T22:34:30.596Z,14.30
2022-08-25T22:37:03.718Z,14.20
2022-08-25T22:39:32.239Z,14.30
2022-08-25T22:42:02.753Z,14.20
2022-08-25T22:44:31.298Z,14.20
2022-08-25T22:46:58.453Z,14.20
2022-08-25T22:49:29.022Z,14.10
2022-08-25T22:51:56.230Z,14.10
2022-08-25T22:54:23.922Z,14.10
2022-08-25T22:56:53.227Z,14.10
2022-08-25T22:59:20.545Z,14.00
2022-08-25T23:01:49.777Z,14.10
2022-08-25T23:04:17.716Z,14.00
2022-08-25T23:06:46.491Z,14.00
2022-08-25T23:09:14.286Z,14.00
2022-08-25T23:11:42.630Z,14.00
2022-08-25T23:14:11.318Z,13.90
2022-08-25T23:16:43.086Z,14.00
2022-08-25T23:19:14.754Z,13.90
2022-08-25T23:22:01.821Z,13.90
2022-08-25T23:24:30.662Z,13.90
2022-08-25T23:27:03.825Z,13.90
2022-08-25T23:29:34.252Z,13.90
2022-08-25T23:32:02.075Z,13.90
2022-08-25T23:34:29.889Z,13.80
2022-08-25T23:36:57.696Z,13.80
2022-08-25T23:39:24.984Z,13.80
2022-08-25T23:41:52.136Z,13.80
2022-08-25T23:44:20.499Z,13.80
2022-08-25T23:46:48.594Z,13.70
2022-08-25T23:49:18.474Z,13.70
2022-08-25T23:51:48.784Z,13.70
2022-08-25T23:54:19.390Z,13.70
2022-08-25T23:56:52.348Z,13.60
2022-08-25T23:59:24.187Z,13.60
